createdAt,value
2022-09-17T00:01:24.476Z,4.93
2022-09-17T00:03:53.893Z,4.20
2022-09-17T00:06:22.351Z,4.47
2022-09-17T00:08:50.010Z,4.47
2022-09-17T00:11:21.998Z,4.40
2022-09-17T00:13:50.865Z,5.10
2022-09-17T00:16:31.242Z,4.53
2022-09-17T00:19:00.383Z,4.70
2022-09-17T00:21:28.605Z,4.47
2022-09-17T00:24:00.981Z,4.82
2022-09-17T00:26:28.712Z,5.05
2022-09-17T00:28:57.645Z,4.63
2022-09-17T00:31:25.907Z,5.18
2022-09-17T00:33:53.483Z,4.90
2022-09-17T00:36:21.178Z,4.30
2022-09-17T00:38:53.079Z,5.20
2022-09-17T00:41:21.638Z,4.63
2022-09-17T00:43:52.097Z,4.70
2022-09-17T00:46:34.207Z,4.63
2022-09-17T00:49:06.144Z,4.68
2022-09-17T00:51:44.453Z,5.03
2022-09-17T00:54:12.047Z,4.85
2022-09-17T00:56:41.316Z,5.00
2022-09-17T00:59:09.005Z,4.65
2022-09-17T01:01:37.037Z,4.70
2022-09-17T01:04:04.070Z,4.78
2022-09-17T01:06:47.866Z,5.03
2022-09-17T01:09:32.842Z,4.50
2022-09-17T01:12:20.688Z,5.13
2022-09-17T01:15:16.663Z,5.05
2022-09-17T01:18:01.640Z,5.00
2022-09-17T01:21:05.397Z,5.45
2022-09-17T01:23:47.060Z,4.25
2022-09-17T01:26:22.593Z,4.80
2022-09-17T01:29:15.157Z,4.45
2022-09-17T01:31:54.525Z,4.47
2022-09-17T01:34:59.569Z,4.32
2022-09-17T01:37:48.474Z,4.85
2022-09-17T01:40:28.779Z,4.40
2022-09-17T01:43:12.353Z,4.65
2022-09-17T01:45:45.280Z,4.63
2022-09-17T01:48:20.882Z,4.05
2022-09-17T01:51:07.556Z,4.40
2022-09-17T01:53:44.626Z,4.20
2022-09-17T01:56:17.312Z,5.50
2022-09-17T01:58:50.961Z,4.95
2022-09-17T02:01:20.689Z,4.68
2022-09-17T02:04:06.731Z,4.60
2022-09-17T02:06:38.721Z,4.22
2022-09-17T02:09:21.066Z,4.55
2022-09-17T02:11:59.244Z,4.90
2022-09-17T02:14:36.310Z,4.70
2022-09-17T02:17:16.864Z,5.45
2022-09-17T02:19:44.395Z,4.35
2022-09-17T02:22:18.819Z,4.40
2022-09-17T02:25:08.526Z,4.97
2022-09-17T02:27:38.834Z,4.55
2022-09-17T02:30:06.764Z,5.43
2022-09-17T02:32:34.003Z,5.05
2022-09-17T02:35:01.066Z,5.47
2022-09-17T02:37:27.999Z,4.78
2022-09-17T02:39:55.780Z,5.00
2022-09-17T02:42:48.244Z,4.93
2022-09-17T02:45:40.926Z,5.80
2022-09-17T02:48:26.129Z,4.97
2022-09-17T02:51:05.108Z,4.95
2022-09-17T02:53:38.295Z,5.15
2022-09-17T02:56:39.000Z,5.10
2022-09-17T02:59:27.230Z,4.63
2022-09-17T03:02:14.203Z,5.18
2022-09-17T03:04:42.143Z,5.00
2022-09-17T03:07:12.160Z,5.75
2022-09-17T03:09:39.732Z,5.10
2022-09-17T03:12:07.033Z,5.18
2022-09-17T03:14:33.991Z,5.22
2022-09-17T03:17:00.925Z,6.22
2022-09-17T03:19:28.113Z,5.35
2022-09-17T03:21:55.309Z,5.35
2022-09-17T03:24:22.247Z,4.80
2022-09-17T03:26:49.593Z,5.88
2022-09-17T03:29:16.990Z,4.70
2022-09-17T03:31:43.978Z,5.10
2022-09-17T03:34:11.035Z,5.60
2022-09-17T03:36:37.982Z,5.32
2022-09-17T03:39:05.504Z,5.72
2022-09-17T03:41:32.468Z,5.85
2022-09-17T03:43:59.371Z,4.75
2022-09-17T03:46:26.401Z,5.50
2022-09-17T03:48:53.412Z,6.10
2022-09-17T03:51:20.567Z,5.53
2022-09-17T03:53:47.492Z,5.65
2022-09-17T03:56:14.693Z,6.25
2022-09-17T03:58:41.630Z,5.85
2022-09-17T04:01:08.572Z,6.32
2022-09-17T04:03:35.553Z,5.53
2022-09-17T04:06:02.648Z,5.13
2022-09-17T04:08:29.533Z,6.18
2022-09-17T04:10:56.532Z,6.05
2022-09-17T04:13:23.530Z,5.90
2022-09-17T04:15:50.587Z,5.70
2022-09-17T04:18:17.685Z,5.30
2022-09-17T04:20:44.733Z,5.65
2022-09-17T04:23:12.226Z,5.25
2022-09-17T04:25:39.426Z,6.03
2022-09-17T04:28:06.510Z,5.93
2022-09-17T04:30:34.422Z,5.65
2022-09-17T04:33:01.363Z,7.07
2022-09-17T04:35:28.515Z,6.03
2022-09-17T04:37:57.108Z,6.32
2022-09-17T04:40:26.527Z,6.05
2022-09-17T04:42:59.597Z,6.30
2022-09-17T04:45:27.177Z,6.43
2022-09-17T04:47:54.064Z,6.00
2022-09-17T04:50:21.770Z,6.18
2022-09-17T04:52:49.129Z,6.78
2022-09-17T04:55:16.635Z,6.63
2022-09-17T04:57:52.119Z,7.18
2022-09-17T05:00:21.124Z,6.20
2022-09-17T05:02:49.870Z,6.40
2022-09-17T05:05:19.062Z,7.53
2022-09-17T05:07:46.592Z,6.85
2022-09-17T05:10:16.674Z,6.47
2022-09-17T05:12:57.209Z,6.07
2022-09-17T05:15:25.986Z,7.03
2022-09-17T05:17:53.000Z,7.45
2022-09-17T05:20:20.464Z,7.25
2022-09-17T05:22:49.714Z,6.65
2022-09-17T05:25:18.128Z,6.60
2022-09-17T05:27:45.732Z,7.40
2022-09-17T05:30:13.260Z,7.13
2022-09-17T05:32:40.944Z,6.22
2022-09-17T05:35:09.462Z,7.35
2022-09-17T05:37:37.617Z,5.90
2022-09-17T05:40:09.347Z,6.97
2022-09-17T05:42:36.894Z,7.05
2022-09-17T05:45:05.755Z,7.30
2022-09-17T05:47:32.610Z,6.35
2022-09-17T05:49:59.941Z,6.95
2022-09-17T05:52:30.106Z,7.53
2022-09-17T05:54:57.307Z,7.00
2022-09-17T05:57:24.873Z,7.32
2022-09-17T05:59:51.873Z,8.23
2022-09-17T06:02:18.958Z,7.72
2022-09-17T06:04:46.452Z,6.80
2022-09-17T06:07:13.632Z,7.15
2022-09-17T06:09:41.337Z,8.05
2022-09-17T06:12:08.641Z,6.85
2022-09-17T06:14:35.747Z,7.70
2022-09-17T06:17:02.659Z,7.15
2022-09-17T06:19:29.631Z,8.02
2022-09-17T06:21:56.593Z,7.28
2022-09-17T06:24:23.524Z,7.20
2022-09-17T06:26:52.522Z,7.60
2022-09-17T06:29:19.973Z,7.97
2022-09-17T06:31:49.300Z,7.20
2022-09-17T06:34:17.817Z,8.07
2022-09-17T06:36:44.754Z,7.30
2022-09-17T06:39:12.011Z,7.78
2022-09-17T06:41:39.159Z,8.07
2022-09-17T06:44:06.154Z,7.28
2022-09-17T06:46:33.169Z,7.35
2022-09-17T06:49:00.193Z,7.15
2022-09-17T06:51:27.174Z,6.40
2022-09-17T06:53:54.135Z,6.72
2022-09-17T06:56:21.084Z,7.13
2022-09-17T06:58:48.015Z,6.63
2022-09-17T07:01:15.191Z,5.93
2022-09-17T07:03:43.581Z,6.47
2022-09-17T07:06:11.726Z,6.13
2022-09-17T07:08:39.935Z,6.38
2022-09-17T07:11:08.184Z,5.95
2022-09-17T07:13:35.474Z,6.03
2022-09-17T07:16:05.118Z,6.20
2022-09-17T07:18:32.746Z,5.40
2022-09-17T07:21:01.768Z,5.57
2022-09-17T07:23:32.154Z,5.68
2022-09-17T07:26:08.554Z,4.25
2022-09-17T07:28:38.407Z,4.30
2022-09-17T07:31:06.523Z,4.88
2022-09-17T07:33:36.560Z,4.10
2022-09-17T07:36:07.567Z,3.67
2022-09-17T07:38:35.298Z,2.78
2022-09-17T07:41:13.374Z,2.40
2022-09-17T07:43:41.634Z,2.05
2022-09-17T07:46:17.125Z,1.95
2022-09-17T07:48:44.239Z,2.70
2022-09-17T07:51:16.677Z,2.00
2022-09-17T07:53:43.712Z,2.40
2022-09-17T07:56:12.016Z,2.20
2022-09-17T07:58:39.718Z,1.90
2022-09-17T08:01:16.759Z,2.13
2022-09-17T08:03:48.172Z,1.77
2022-09-17T08:06:17.910Z,1.75
2022-09-17T08:08:44.835Z,1.70
2022-09-17T08:11:18.141Z,1.20
2022-09-17T08:13:52.674Z,1.50
2022-09-17T08:16:21.378Z,1.38
2022-09-17T08:18:49.797Z,1.33
2022-09-17T08:21:18.658Z,1.30
2022-09-17T08:23:46.091Z,1.20
2022-09-17T08:26:18.469Z,1.30
2022-09-17T08:28:49.423Z,1.60
2022-09-17T08:31:18.982Z,1.25
2022-09-17T08:33:47.434Z,1.15
2022-09-17T08:36:16.465Z,1.20
2022-09-17T08:38:44.390Z,1.58
2022-09-17T08:41:11.570Z,1.30
2022-09-17T08:43:50.573Z,1.30
2022-09-17T08:46:17.600Z,1.48
2022-09-17T08:49:22.122Z,1.50
2022-09-17T08:52:10.145Z,1.20
2022-09-17T08:55:15.407Z,1.25
2022-09-17T08:58:19.318Z,1.40
2022-09-17T09:01:10.325Z,1.40
2022-09-17T09:04:16.513Z,1.23
2022-09-17T09:06:49.300Z,1.35
2022-09-17T09:09:21.113Z,1.40
2022-09-17T09:11:51.035Z,2.08
2022-09-17T09:14:29.447Z,1.35
2022-09-17T09:16:57.402Z,2.28
2022-09-17T09:19:27.062Z,1.40
2022-09-17T09:22:31.674Z,1.10
2022-09-17T09:25:25.130Z,1.40
2022-09-17T09:28:19.324Z,1.52
2022-09-17T09:31:09.839Z,1.30
2022-09-17T09:33:41.615Z,1.45
2022-09-17T09:36:15.353Z,1.23
2022-09-17T09:39:17.907Z,1.33
2022-09-17T09:41:51.436Z,1.23
2022-09-17T09:44:19.084Z,1.48
2022-09-17T09:47:13.532Z,1.38
2022-09-17T09:49:45.516Z,1.50
2022-09-17T09:52:46.133Z,1.27
2022-09-17T09:55:40.621Z,1.10
2022-09-17T09:58:38.623Z,1.50
2022-09-17T10:01:39.828Z,1.40
2022-09-17T10:04:28.422Z,1.42
2022-09-17T10:07:10.777Z,1.15
2022-09-17T10:09:44.992Z,1.10
2022-09-17T10:12:11.913Z,0.95
2022-09-17T10:14:41.295Z,1.10
2022-09-17T10:17:20.971Z,0.80
2022-09-17T10:20:20.588Z,1.10
2022-09-17T10:22:50.168Z,1.10
2022-09-17T10:25:34.080Z,1.40
2022-09-17T10:28:21.473Z,0.70
2022-09-17T10:31:08.588Z,0.98
2022-09-17T10:33:53.633Z,0.90
2022-09-17T10:36:43.953Z,1.00
2022-09-17T10:39:27.742Z,1.15
2022-09-17T10:41:56.895Z,0.80
2022-09-17T10:44:29.482Z,1.17
2022-09-17T10:47:22.468Z,1.08
2022-09-17T10:50:02.679Z,1.70
2022-09-17T10:52:35.892Z,2.47
2022-09-17T10:55:23.084Z,1.60
2022-09-17T10:58:07.764Z,1.98
2022-09-17T11:00:49.593Z,1.70
2022-09-17T11:03:45.679Z,1.88
2022-09-17T11:06:54.672Z,2.00
2022-09-17T11:10:06.427Z,1.95
2022-09-17T11:12:55.328Z,1.60
2022-09-17T11:15:47.679Z,1.83
2022-09-17T11:18:38.447Z,2.15
2022-09-17T11:21:40.549Z,1.60
2022-09-17T11:24:25.967Z,2.00
2022-09-17T11:26:56.748Z,1.58
2022-09-17T11:29:39.250Z,2.05
2022-09-17T11:32:44.453Z,1.70
2022-09-17T11:35:26.308Z,1.88
2022-09-17T11:38:20.203Z,1.40
2022-09-17T11:41:07.685Z,1.95
2022-09-17T11:44:00.034Z,1.75
2022-09-17T11:46:44.565Z,1.80
2022-09-17T11:49:34.165Z,1.52
2022-09-17T11:52:30.320Z,1.90
2022-09-17T11:55:26.284Z,2.20
2022-09-17T11:58:00.946Z,2.17
2022-09-17T12:00:32.336Z,2.10
2022-09-17T12:03:36.701Z,1.67
2022-09-17T12:06:15.433Z,1.58
2022-09-17T12:09:16.202Z,1.65
2022-09-17T12:11:49.336Z,1.73
2022-09-17T12:14:44.779Z,1.73
2022-09-17T12:17:21.594Z,2.05
2022-09-17T12:19:54.920Z,2.05
2022-09-17T12:22:28.485Z,1.70
2022-09-17T12:24:55.679Z,1.85
2022-09-17T12:27:34.442Z,1.58
2022-09-17T12:30:22.627Z,1.98
2022-09-17T12:36:05.168Z,2.10
2022-09-17T12:39:10.041Z,1.90
2022-09-17T12:41:47.891Z,1.88
2022-09-17T12:44:17.889Z,1.85
2022-09-17T12:46:54.718Z,1.70
2022-09-17T12:49:21.801Z,1.98
2022-09-17T12:51:51.802Z,1.90
2022-09-17T12:54:45.531Z,1.75
2022-09-17T12:57:28.236Z,1.60
2022-09-17T13:00:08.340Z,1.77
2022-09-17T13:02:57.207Z,1.63
2022-09-17T13:06:02.579Z,1.67
2022-09-17T13:08:44.557Z,1.95
2022-09-17T13:11:20.406Z,1.90
2022-09-17T13:13:55.539Z,1.85
2022-09-17T13:16:38.547Z,1.90
2022-09-17T13:19:27.429Z,1.98
2022-09-17T13:22:00.552Z,1.88
2022-09-17T13:24:31.611Z,2.22
2022-09-17T13:27:01.552Z,2.05
2022-09-17T13:29:46.860Z,2.25
2022-09-17T13:32:32.490Z,2.13
2022-09-17T13:35:11.328Z,2.03
2022-09-17T13:37:49.099Z,2.60
2022-09-17T13:40:26.024Z,2.60
2022-09-17T13:42:56.043Z,2.85
2022-09-17T13:45:25.820Z,2.58
2022-09-17T13:48:00.879Z,2.67
2022-09-17T13:50:27.861Z,2.45
2022-09-17T13:52:58.185Z,2.13
2022-09-17T13:55:38.143Z,1.88
2022-09-17T13:58:23.247Z,1.85
2022-09-17T14:01:12.002Z,2.15
2022-09-17T14:03:43.968Z,1.80
2022-09-17T14:06:22.123Z,2.22
2022-09-17T14:08:52.028Z,1.60
2022-09-17T14:11:28.706Z,2.53
2022-09-17T14:14:18.563Z,1.50
2022-09-17T14:16:50.475Z,1.90
2022-09-17T14:19:29.369Z,1.50
2022-09-17T14:22:00.749Z,1.17
2022-09-17T14:24:37.009Z,0.88
2022-09-17T14:27:25.410Z,0.70
2022-09-17T14:30:22.438Z,0.70
2022-09-17T14:33:01.405Z,0.60
2022-09-17T14:35:48.859Z,0.70
2022-09-17T14:38:22.165Z,0.50
2022-09-17T14:41:17.939Z,0.60
2022-09-17T14:44:05.864Z,1.00
2022-09-17T14:46:40.683Z,0.88
2022-09-17T14:49:22.909Z,0.63
2022-09-17T14:51:51.442Z,0.73
2022-09-17T14:54:21.512Z,0.88
2022-09-17T14:56:50.359Z,0.57
2022-09-17T14:59:33.468Z,0.60
2022-09-17T15:02:01.077Z,0.70
2022-09-17T15:04:28.996Z,0.70
2022-09-17T15:07:10.329Z,0.88
2022-09-17T15:09:37.488Z,1.60
2022-09-17T15:12:06.133Z,1.20
2022-09-17T15:14:40.024Z,1.13
2022-09-17T15:17:13.967Z,0.80
2022-09-17T15:19:51.611Z,20.45
2022-09-17T15:22:25.367Z,16.65
2022-09-17T15:24:57.117Z,1.45
2022-09-17T15:27:40.617Z,1.30
2022-09-17T15:30:15.076Z,0.80
2022-09-17T15:33:04.281Z,3.88
2022-09-17T15:35:32.979Z,11.18
2022-09-17T15:40:53.042Z,4.72
2022-09-17T15:43:29.672Z,14.18
2022-09-17T15:46:00.832Z,2.38
2022-09-17T15:48:27.725Z,3.20
2022-09-17T15:50:57.367Z,1.20
2022-09-17T15:53:31.641Z,1.20
2022-09-17T15:56:23.655Z,1.23
2022-09-17T15:58:54.801Z,1.15
2022-09-17T16:01:45.073Z,1.10
2022-09-17T16:04:21.047Z,1.70
2022-09-17T16:07:08.073Z,1.30
2022-09-17T16:09:38.153Z,1.40
2022-09-17T16:12:05.468Z,1.40
2022-09-17T16:14:32.459Z,1.42
2022-09-17T16:17:00.030Z,1.00
2022-09-17T16:19:27.001Z,1.15
2022-09-17T16:21:54.007Z,0.82
2022-09-17T16:24:20.999Z,0.60
2022-09-17T16:26:47.922Z,0.70
2022-09-17T16:29:17.775Z,1.25
2022-09-17T16:31:47.654Z,1.25
2022-09-17T16:34:14.688Z,0.80
2022-09-17T16:36:41.668Z,0.60
2022-09-17T16:39:08.592Z,0.75
2022-09-17T16:41:35.579Z,0.68
2022-09-17T16:44:02.717Z,0.60
2022-09-17T16:46:29.725Z,0.60
2022-09-17T16:48:57.498Z,0.70
2022-09-17T16:51:24.528Z,0.75
2022-09-17T16:53:51.732Z,0.60
2022-09-17T16:56:18.727Z,0.95
2022-09-17T16:58:45.789Z,0.80
2022-09-17T17:01:14.963Z,0.70
2022-09-17T17:03:42.677Z,0.85
2022-09-17T17:06:17.061Z,0.80
2022-09-17T17:08:44.097Z,0.98
2022-09-17T17:11:11.258Z,0.60
2022-09-17T17:13:38.427Z,0.95
2022-09-17T17:16:10.382Z,0.77
2022-09-17T17:18:38.007Z,1.10
2022-09-17T17:21:07.001Z,0.60
2022-09-17T17:23:35.079Z,0.60
2022-09-17T17:26:03.721Z,0.60
2022-09-17T17:28:35.799Z,0.90
2022-09-17T17:31:04.262Z,0.70
2022-09-17T17:33:31.320Z,1.15
2022-09-17T17:36:07.587Z,1.10
2022-09-17T17:38:36.198Z,1.23
2022-09-17T17:41:09.819Z,0.82
2022-09-17T17:43:37.954Z,1.17
2022-09-17T17:46:12.128Z,1.17
2022-09-17T17:48:39.279Z,1.27
2022-09-17T17:51:08.851Z,0.90
2022-09-17T17:53:36.433Z,1.60
2022-09-17T17:56:08.143Z,1.40
2022-09-17T17:58:36.350Z,1.60
2022-09-17T18:01:14.260Z,1.70
2022-09-17T18:03:41.836Z,1.58
2022-09-17T18:06:09.699Z,1.08
2022-09-17T18:08:41.606Z,1.10
2022-09-17T18:11:11.325Z,1.15
2022-09-17T18:13:40.298Z,1.30
2022-09-17T18:16:09.310Z,1.13
2022-09-17T18:18:44.414Z,1.40
2022-09-17T18:21:22.123Z,0.95
2022-09-17T18:23:50.250Z,1.20
2022-09-17T18:26:26.644Z,1.38
2022-09-17T18:28:53.911Z,1.13
2022-09-17T18:31:35.854Z,1.52
2022-09-17T18:34:13.511Z,1.67
2022-09-17T18:36:41.808Z,1.65
2022-09-17T18:42:01.050Z,1.60
2022-09-17T18:44:28.053Z,1.23
2022-09-17T18:46:55.210Z,1.40
2022-09-17T18:49:22.484Z,1.27
2022-09-17T18:51:49.544Z,1.30
2022-09-17T18:54:16.707Z,1.50
2022-09-17T18:56:43.769Z,1.25
2022-09-17T18:59:11.247Z,1.40
2022-09-17T19:01:38.615Z,1.20
2022-09-17T19:04:07.997Z,1.20
2022-09-17T19:06:36.195Z,1.40
2022-09-17T19:09:04.833Z,1.55
2022-09-17T19:11:31.837Z,1.48
2022-09-17T19:13:58.911Z,1.50
2022-09-17T19:16:26.090Z,1.58
2022-09-17T19:18:53.114Z,1.55
2022-09-17T19:21:23.362Z,1.42
2022-09-17T19:23:51.949Z,1.80
2022-09-17T19:26:21.786Z,1.30
2022-09-17T19:28:52.293Z,1.35
2022-09-17T19:31:19.879Z,1.50
2022-09-17T19:33:47.740Z,1.42
2022-09-17T19:36:18.528Z,1.25
2022-09-17T19:38:46.459Z,1.60
2022-09-17T19:41:16.799Z,1.40
2022-09-17T19:43:45.242Z,1.30
2022-09-17T19:46:13.740Z,1.40
2022-09-17T19:48:45.259Z,1.90
2022-09-17T19:51:13.098Z,1.85
2022-09-17T19:53:40.353Z,1.30
2022-09-17T19:56:10.773Z,1.80
2022-09-17T19:58:37.859Z,2.13
2022-09-17T20:01:04.951Z,1.95
2022-09-17T20:03:32.022Z,1.88
2022-09-17T20:06:04.253Z,2.00
2022-09-17T20:08:31.761Z,2.03
2022-09-17T20:11:10.273Z,1.92
2022-09-17T20:13:38.204Z,1.92
2022-09-17T20:16:22.259Z,2.20
2022-09-17T20:18:50.295Z,1.80
2022-09-17T20:21:20.193Z,2.72
2022-09-17T20:23:47.262Z,2.28
2022-09-17T20:26:15.280Z,2.70
2022-09-17T20:28:42.922Z,2.10
2022-09-17T20:31:21.763Z,2.40
2022-09-17T20:33:53.299Z,2.13
2022-09-17T20:36:22.704Z,2.50
2022-09-17T20:41:40.813Z,2.13
2022-09-17T20:44:08.020Z,2.60
2022-09-17T20:46:35.170Z,2.40
2022-09-17T20:49:02.282Z,2.33
2022-09-17T20:51:30.394Z,2.00
2022-09-17T20:53:57.970Z,1.98
2022-09-17T20:56:28.195Z,2.15
2022-09-17T20:59:09.607Z,2.63
2022-09-17T21:01:38.015Z,1.50
2022-09-17T21:04:07.491Z,2.38
2022-09-17T21:06:41.237Z,1.70
2022-09-17T21:09:15.838Z,2.15
2022-09-17T21:11:44.571Z,1.90
2022-09-17T21:14:12.033Z,1.75
2022-09-17T21:16:39.225Z,2.20
2022-09-17T21:19:09.607Z,1.80
2022-09-17T21:21:36.650Z,2.53
2022-09-17T21:24:05.965Z,1.35
2022-09-17T21:26:34.986Z,1.45
2022-09-17T21:29:02.600Z,1.60
2022-09-17T21:31:33.227Z,1.50
2022-09-17T21:34:02.649Z,1.10
2022-09-17T21:36:32.283Z,1.20
2022-09-17T21:39:26.734Z,1.10
2022-09-17T21:41:54.805Z,1.00
2022-09-17T21:44:22.030Z,1.33
2022-09-17T21:46:49.921Z,1.10
2022-09-17T21:49:17.530Z,1.00
2022-09-17T21:51:44.454Z,0.90
2022-09-17T21:54:13.822Z,1.23
2022-09-17T21:56:40.953Z,0.88
2022-09-17T21:59:11.278Z,0.85
2022-09-17T22:01:41.201Z,0.88
2022-09-17T22:04:10.607Z,0.82
2022-09-17T22:06:38.300Z,0.90
2022-09-17T22:09:07.736Z,1.10
2022-09-17T22:11:38.501Z,0.60
2022-09-17T22:14:10.940Z,0.70
2022-09-17T22:16:41.374Z,0.93
2022-09-17T22:19:12.658Z,0.70
2022-09-17T22:21:42.596Z,0.70
2022-09-17T22:24:10.819Z,0.88
2022-09-17T22:26:41.847Z,1.00
2022-09-17T22:29:13.608Z,0.80
2022-09-17T22:31:40.698Z,0.93
2022-09-17T22:34:12.329Z,0.90
2022-09-17T22:36:39.741Z,0.90
2022-09-17T22:39:07.714Z,0.80
2022-09-17T22:41:37.263Z,0.82
2022-09-17T22:44:06.498Z,1.27
2022-09-17T22:46:38.392Z,0.93
2022-09-17T22:49:06.204Z,0.63
2022-09-17T22:51:33.201Z,1.40
2022-09-17T22:54:00.877Z,1.13
2022-09-17T22:56:29.058Z,1.13
2022-09-17T22:58:57.715Z,1.23
2022-09-17T23:01:30.474Z,1.50
2022-09-17T23:03:59.407Z,0.90
2022-09-17T23:06:29.273Z,1.48
2022-09-17T23:08:57.059Z,0.95
2022-09-17T23:11:32.204Z,1.40
2022-09-17T23:14:02.419Z,1.60
2022-09-17T23:16:38.111Z,1.33
2022-09-17T23:19:05.578Z,1.45
2022-09-17T23:21:32.713Z,1.20
2022-09-17T23:23:59.794Z,1.30
2022-09-17T23:26:27.749Z,1.60
2022-09-17T23:28:54.931Z,1.40
2022-09-17T23:31:28.487Z,1.60
2022-09-17T23:33:56.805Z,1.58
2022-09-17T23:36:26.952Z,1.55
2022-09-17T23:38:55.782Z,1.45
2022-09-17T23:41:28.312Z,1.30
2022-09-17T23:43:57.981Z,1.75
2022-09-17T23:46:26.864Z,1.50
2022-09-17T23:48:54.463Z,1.50
2022-09-17T23:51:23.462Z,1.20
2022-09-17T23:53:50.696Z,1.48
2022-09-17T23:56:26.454Z,1.20
2022-09-17T23:58:55.111Z,1.40
